ADDS METAR Data INFO
IDs: Format: Raw Decoded Include TAF

Data at: 2213 UTC 24 Jun 2018

KVQQ 242150Z 33006KT 10SM BKN060 36/ A2998
KVQQ 242050Z 34004KT 10SM BKN050 36/ A3000
KVQQ 241950Z 34004KT 10SM BKN050 35/ A3001
KVQQ 241850Z 34004KT 10SM BKN050 36/ A3002
KVQQ 241750Z 30007KT 10SM BKN048 34/ A3005
KVQQ 241650Z 30007KT 10SM BKN040 35/ A3005
KVQQ 241550Z 30007KT 10SM BKN036 33/ A3007
KVQQ 241450Z 29007KT 10SM BKN029 32/ A3007
KVQQ 241350Z 29007KT 10SM BKN021 BKN026 31/ A3006
KVQQ 241250Z 28007KT 10SM SCT014 29/ A3006
KVQQ 241150Z VRB03KT 10SM CLR 26/ A3005
KVQQ 241050Z 00000KT 10SM FEW018 23/ A3002
KVQQ 241035Z AUTO 00000KT 6SM BR SCT018 23/23 A3002 RMK AO2
KVQQ 241015Z AUTO 00000KT 6SM BR CLR 24/24 A3001 RMK AO2
KVQQ 240955Z AUTO 00000KT 7SM CLR 24/24 A3000 RMK AO2
KVQQ 240935Z AUTO 00000KT 9SM CLR 23/23 A3000 RMK AO2
KVQQ 240915Z AUTO 00000KT 10SM CLR 24/24 A2999 RMK AO2
KVQQ 240855Z AUTO 00000KT 10SM CLR 24/24 A2999 RMK AO2
KVQQ 240835Z AUTO 00000KT 10SM CLR 24/24 A3000 RMK AO2
KVQQ 240815Z AUTO 00000KT 10SM CLR 24/24 A3000 RMK AO2
KVQQ 240755Z AUTO 00000KT 10SM CLR 24/24 A2999 RMK AO2
KVQQ 240735Z AUTO 00000KT 10SM CLR 24/24 A2999 RMK AO2
KVQQ 240715Z AUTO 00000KT 10SM CLR 24/24 A2999 RMK AO2
KVQQ 240655Z AUTO 00000KT 10SM CLR 25/25 A2998 RMK AO2
KVQQ 240635Z AUTO 17004KT 10SM CLR 25/25 A2998 RMK AO2
KVQQ 240615Z AUTO 16003KT 10SM CLR 25/25 A2998 RMK AO2
KVQQ 240555Z AUTO 00000KT 10SM CLR 25/25 A2998 RMK AO2
KVQQ 240535Z AUTO 00000KT 10SM FEW028 SCT039 25/25 A3000 RMK AO2
KVQQ 240515Z AUTO 16004KT 9SM BKN021 BKN028 BKN040 25/25 A3000 RMK AO2
KVQQ 240455Z AUTO 00000KT 8SM BKN021 OVC025 26/25 A3001 RMK AO2
KVQQ 240435Z AUTO 17004KT 10SM SCT023 BKN027 BKN038 26/25 A3001 RMK AO2
KVQQ 240415Z AUTO 15003KT 10SM FEW023 FEW031 SCT047 26/25 A3001 RMK AO2
KVQQ 240355Z AUTO 00000KT 10SM FEW031 FEW048 FEW055 26/25 A3001 RMK AO2
KVQQ 240335Z AUTO 15004KT 10SM FEW050 27/25 A3001 RMK AO2
KVQQ 240315Z AUTO 16004KT 10SM FEW050 27/25 A3001 RMK AO2
KVQQ 240050Z 18003KT 10SM CLR 30/ A2995
KVQQ 232350Z 27006KT 10SM SCT055 33/ A2995
KVQQ 232250Z 27006KT 10SM SCT055 33/ A2995
KVQQ 232150Z 27006KT 10SM SCT055 36/ A2994
KVQQ 232050Z 27006KT 10SM SCT055 36/ A2994
KVQQ 231950Z 27006KT 10SM SCT055 35/ A2995
KVQQ 231850Z 27006KT 10SM SCT055 35/ A2997
KVQQ 231750Z 27014KT 10SM SCT042 35/ A2999
KVQQ 231650Z 27014KT 10SM SCT042 34/ A3000
KVQQ 231550Z 27010KT 10SM BKN030 34/ A3000
KVQQ 231450Z 27010KT 10SM BKN028 32/ A3000
KVQQ 231350Z 30010KT 10SM BKN019 30/ A3001
KVQQ 231315Z 27009KT 10SM BKN015 30/ A3001
KVQQ 231250Z VRB04KT 10SM SCT026 28/ A3001
KVQQ 231150Z 22004KT 10SM SCT020 26/ A2999
KVQQ 231050Z 22004KT 5SM BR SCT019 24/ A2997
KVQQ 231035Z AUTO 00000KT 5SM BR FEW017 24/24 A2997 RMK AO2
KVQQ 231015Z AUTO 00000KT 7SM CLR 24/24 A2996 RMK AO2